Time;durP1;ratioP1;P1;durP2;ratioP2;P2;SDS_P1;SDS_P2;PMS_P1;PMS_P2;Temp;Humidity;BMP_temperature;BMP_pressure;BME280_temperature;BME280_humidity;BME280_pressure;Samples;Min_cycle;Max_cycle;Signal;HPM_P1;HPM_P2
2023/03/30 00:00:42;;;;;;;6.10;2.20;;;;;;;-146.27;75.01;82826.16;5082035;28;20107;-66
2023/03/30 00:03:08;;;;;;;4.28;2.05;;;;;;;-146.27;74.93;82844.22;5082400;28;20404;-66
2023/03/30 00:05:34;;;;;;;5.40;1.73;;;;;;;-146.27;74.82;82838.19;5085687;28;20032;-66
2023/03/30 00:08:01;;;;;;;5.78;1.95;;;;;;;-146.27;75.01;82814.09;5089718;28;20039;-67
2023/03/30 00:10:28;;;;;;;5.60;3.05;;;;;;;-146.27;75.25;82818.13;5080953;28;20492;-67
2023/03/30 00:12:54;;;;;;;3.63;1.55;;;;;;;-146.27;75.55;82874.38;5090387;28;20541;-66
2023/03/30 00:15:22;;;;;;;6.05;2.38;;;;;;;-146.27;75.69;82878.38;5084652;28;20024;-67
2023/03/30 00:17:49;;;;;;;6.35;2.10;;;;;;;-146.27;76.08;82858.28;5082153;28;20038;-66
2023/03/30 00:20:15;;;;;;;5.18;2.08;;;;;;;-146.27;76.56;82870.34;5083514;28;20046;-66
2023/03/30 00:22:42;;;;;;;5.07;2.08;;;;;;;-146.27;76.78;82876.38;5089152;28;20556;-67
2023/03/30 00:25:11;;;;;;;7.78;2.10;;;;;;;-146.27;77.33;82890.44;5086885;28;20400;-66
2023/03/30 00:27:37;;;;;;;6.25;2.40;;;;;;;-146.27;77.72;82920.56;5088493;28;20073;-66
2023/03/30 00:30:04;;;;;;;6.20;2.08;;;;;;;-146.27;78.24;82894.47;5087423;28;20031;-66
2023/03/30 00:32:30;;;;;;;5.00;3.08;;;;;;;-146.27;78.89;82906.50;5087609;28;20103;-66
2023/03/30 00:34:55;;;;;;;5.22;1.77;;;;;;;-146.27;79.63;82926.59;5095623;28;20115;-67
2023/03/30 00:37:22;;;;;;;6.63;1.88;;;;;;;-146.27;80.14;82922.59;5082820;28;20016;-66
2023/03/30 00:39:47;;;;;;;6.93;2.33;;;;;;;-146.27;81.12;82890.44;5094702;28;20114;-67
2023/03/30 00:42:15;;;;;;;7.30;1.95;;;;;;;-146.27;82.25;82898.47;5083257;28;20516;-67
2023/03/30 00:45:18;;;;;;;8.20;2.03;;;;;;;-146.27;82.68;82946.69;5086541;28;20033;-66
2023/03/30 00:48:23;;;;;;;9.68;2.10;;;;;;;-146.27;82.88;82928.59;5097285;28;20059;-67
2023/03/30 00:50:57;;;;;;;5.55;1.88;;;;;;;-146.27;82.96;82938.66;5044215;28;20477;-66
2023/03/30 00:53:25;;;;;;;4.47;1.80;;;;;;;-146.27;83.10;82902.50;5092033;28;20048;-67
2023/03/30 00:55:53;;;;;;;10.30;2.38;;;;;;;-146.27;83.39;82958.75;5089797;28;20031;-66
2023/03/30 00:58:21;;;;;;;3.95;1.67;;;;;;;-146.27;83.15;82954.72;5088017;28;20036;-67
2023/03/30 01:00:47;;;;;;;5.35;1.90;;;;;;;-146.27;83.42;82946.69;5087127;28;20515;-66
2023/03/30 01:03:26;;;;;;;7.32;1.88;;;;;;;-146.27;84.18;82942.66;5091196;28;20103;-66
2023/03/30 01:05:54;;;;;;;5.90;1.85;;;;;;;-146.27;84.75;82950.72;5095994;28;20024;-66
2023/03/30 01:08:22;;;;;;;11.10;2.25;;;;;;;-146.27;85.59;82994.91;5090226;28;20048;-66
2023/03/30 01:10:49;;;;;;;12.57;2.00;;;;;;;-146.27;86.69;82976.81;5088442;28;20528;-67
2023/03/30 01:13:15;;;;;;;7.95;1.50;;;;;;;-146.27;87.10;82958.75;5095665;28;20035;-66
2023/03/30 01:16:01;;;;;;;13.05;1.98;;;;;;;-146.27;87.19;82964.78;5091678;28;20020;-67
2023/03/30 01:18:43;;;;;;;6.53;1.60;;;;;;;-146.27;87.97;82950.72;5091154;28;20077;-66
2023/03/30 01:21:28;;;;;;;4.43;1.55;;;;;;;-146.27;88.52;82958.75;5084298;28;20145;-67
2023/03/30 01:24:31;;;;;;;7.70;1.55;;;;;;;-146.27;89.23;82988.88;5079284;28;20115;-66
2023/03/30 01:27:39;;;;;;;12.95;1.88;;;;;;;-146.27;89.94;82990.88;5091222;28;20446;-66
2023/03/30 01:30:22;;;;;;;4.13;1.80;;;;;;;-146.27;90.18;82988.88;5075801;28;20036;-67
2023/03/30 01:33:36;;;;;;;6.13;1.55;;;;;;;-146.27;91.34;82990.88;5097491;28;20127;-66
2023/03/30 01:36:16;;;;;;;8.10;1.97;;;;;;;-146.27;91.34;82972.81;5059026;28;20382;-67
2023/03/30 01:39:12;;;;;;;8.43;1.80;;;;;;;-146.27;92.44;82998.94;5095572;28;20417;-67
2023/03/30 01:42:17;;;;;;;9.02;1.80;;;;;;;-146.27;92.90;83010.97;5078228;28;20506;-68
2023/03/30 01:45:04;;;;;;;6.82;1.50;;;;;;;-146.27;93.66;83037.09;5078971;28;20066;-66
2023/03/30 01:47:37;;;;;;;5.75;1.95;;;;;;;-146.27;94.06;83006.97;5088819;28;20028;-66
2023/03/30 01:50:08;;;;;;;9.70;2.00;;;;;;;-146.27;94.70;83035.09;5088128;28;20541;-67
2023/03/30 01:52:43;;;;;;;8.77;2.67;;;;;;;-146.27;94.46;82982.84;5094722;28;20047;-66
2023/03/30 01:55:15;;;;;;;4.65;1.48;;;;;;;-146.27;94.96;83033.09;5087658;28;20027;-67
2023/03/30 01:57:50;;;;;;;14.63;1.65;;;;;;;-146.27;95.15;83073.25;5086060;28;20541;-66
2023/03/30 02:00:22;;;;;;;10.07;2.00;;;;;;;-146.27;95.70;83073.25;5077936;28;20120;-67
2023/03/30 02:02:55;;;;;;;6.32;1.75;;;;;;;-146.27;95.39;83059.19;5076826;28;20448;-67
2023/03/30 02:05:23;;;;;;;7.35;1.92;;;;;;;-146.27;94.88;83053.16;5079607;28;20032;-67
2023/03/30 02:07:53;;;;;;;9.32;2.25;;;;;;;-146.27;94.96;83039.09;5085798;28;20383;-67
2023/03/30 02:10:22;;;;;;;5.68;1.65;;;;;;;-146.27;95.96;83087.31;5089768;28;20051;-66
2023/03/30 02:12:50;;;;;;;9.38;2.00;;;;;;;-146.27;96.37;83055.19;5089008;28;20605;-67
2023/03/30 02:15:17;;;;;;;7.50;2.10;;;;;;;-146.27;97.05;83095.38;5084963;28;20103;-66
2023/03/30 02:17:46;;;;;;;9.73;1.83;;;;;;;-146.27;97.60;83069.25;5090148;28;20028;-66
2023/03/30 02:20:15;;;;;;;9.50;1.75;;;;;;;-146.27;97.73;83089.34;5083207;28;20396;-67
2023/03/30 02:22:41;;;;;;;6.72;2.20;;;;;;;-146.27;98.81;83035.09;5078336;28;20025;-67
2023/03/30 02:25:07;;;;;;;5.40;1.92;;;;;;;-146.27;98.84;83079.28;5074603;28;20035;-67
2023/03/30 02:27:33;;;;;;;7.93;1.80;;;;;;;-146.27;99.19;83065.22;5091515;28;20399;-66
2023/03/30 02:29:59;;;;;;;9.48;1.90;;;;;;;-146.27;99.91;83129.53;5087056;28;20028;-66
2023/03/30 02:32:35;;;;;;;12.52;2.08;;;;;;;-146.27;99.71;83103.41;5088570;28;20035;-66
2023/03/30 02:35:25;;;;;;;10.25;1.85;;;;;;;-146.27;100.00;83107.41;5092456;28;20103;-67
2023/03/30 02:38:03;;;;;;;7.10;1.77;;;;;;;-146.27;100.00;83139.56;5087536;28;20024;-66
2023/03/30 02:40:36;;;;;;;6.60;1.60;;;;;;;-146.27;100.00;83141.56;5091677;28;20032;-66
2023/03/30 02:43:17;;;;;;;7.45;1.75;;;;;;;-146.27;100.00;83145.59;5080617;28;20126;-67
2023/03/30 02:46:13;;;;;;;8.45;1.85;;;;;;;-146.27;100.00;83059.19;5091228;28;20040;-66
2023/03/30 02:49:05;;;;;;;6.45;1.95;;;;;;;-146.27;100.00;83117.47;5051901;28;20492;-66
2023/03/30 02:52:05;;;;;;;5.03;2.20;;;;;;;-146.27;100.00;83123.50;5091521;28;20024;-66
2023/03/30 02:55:01;;;;;;;7.22;1.67;;;;;;;-146.27;100.00;83127.50;5077480;28;20447;-66
2023/03/30 02:57:44;;;;;;;5.72;2.03;;;;;;;-146.27;100.00;83123.50;5086328;28;20056;-66
2023/03/30 03:00:22;;;;;;;11.25;1.70;;;;;;;-146.27;100.00;83091.34;5087849;28;20034;-66
2023/03/30 03:02:52;;;;;;;8.52;2.20;;;;;;;-146.27;100.00;83135.53;5078115;28;20035;-65
2023/03/30 03:05:19;;;;;;;10.32;1.75;;;;;;;-146.27;100.00;83135.53;5089622;28;20039;-65
2023/03/30 03:07:46;;;;;;;5.47;2.05;;;;;;;-146.27;100.00;83093.34;5083335;28;20032;-66
2023/03/30 03:10:13;;;;;;;9.50;2.20;;;;;;;-146.27;100.00;83119.47;5082312;28;20036;-65
2023/03/30 03:12:40;;;;;;;7.03;1.77;;;;;;;-146.27;100.00;83115.47;5074326;28;20048;-66
2023/03/30 03:15:06;;;;;;;9.93;1.90;;;;;;;-146.27;100.00;83129.53;5089587;28;20391;-66
2023/03/30 03:17:33;;;;;;;6.30;1.80;;;;;;;-146.27;100.00;83067.25;5090883;28;20034;-65
2023/03/30 03:20:03;;;;;;;5.43;1.83;;;;;;;-146.27;100.00;83143.59;5083706;28;20057;-65
2023/03/30 03:22:30;;;;;;;8.32;2.17;;;;;;;-146.27;100.00;83095.38;5073085;28;20142;-65
2023/03/30 03:24:55;;;;;;;5.32;1.33;;;;;;;-146.27;100.00;83099.38;5091505;28;20032;-66
2023/03/30 03:27:21;;;;;;;3.80;1.40;;;;;;;-146.27;100.00;83109.44;5090723;28;20039;-66
2023/03/30 03:29:46;;;;;;;3.50;1.45;;;;;;;-146.27;100.00;83123.50;5076083;28;20028;-67
2023/03/30 03:32:12;;;;;;;7.47;1.50;;;;;;;-146.27;100.00;83109.44;5081725;28;20031;-66
2023/03/30 03:34:38;;;;;;;8.02;1.48;;;;;;;-146.27;100.00;83115.47;5083569;28;20025;-67
2023/03/30 03:37:04;;;;;;;8.70;2.25;;;;;;;-146.27;100.00;83091.34;5091507;28;20551;-67
2023/03/30 03:39:30;;;;;;;7.65;1.80;;;;;;;-146.27;100.00;83093.34;5082227;28;20108;-66
2023/03/30 03:41:55;;;;;;;8.15;1.40;;;;;;;-146.27;100.00;83107.41;5084753;28;20059;-66
2023/03/30 03:44:21;;;;;;;6.38;1.58;;;;;;;-146.27;100.00;83119.47;5083079;28;20031;-67
2023/03/30 03:46:46;;;;;;;5.75;1.60;;;;;;;-146.27;100.00;83129.53;5082286;28;20031;-67
2023/03/30 03:49:12;;;;;;;11.27;1.83;;;;;;;-146.27;100.00;83139.56;5083370;28;20101;-66
2023/03/30 03:51:37;;;;;;;8.52;1.90;;;;;;;-146.27;100.00;83123.50;5084636;28;20778;-66
2023/03/30 03:54:02;;;;;;;9.70;1.50;;;;;;;-146.27;100.00;83171.72;5086464;28;20031;-68
2023/03/30 03:56:28;;;;;;;11.73;1.77;;;;;;;-146.27;100.00;83155.63;5090226;28;20399;-67
2023/03/30 03:58:53;;;;;;;11.55;2.88;;;;;;;-146.27;100.00;83167.69;5087576;28;20099;-66
2023/03/30 04:01:19;;;;;;;17.23;2.47;;;;;;;-146.27;100.00;83167.69;5087384;28;20024;-66
2023/03/30 04:03:44;;;;;;;10.35;1.95;;;;;;;-146.27;100.00;83203.88;5091380;28;20107;-66
2023/03/30 04:06:10;;;;;;;9.20;1.90;;;;;;;-146.27;100.00;83175.72;5091409;28;20034;-66
2023/03/30 04:08:36;;;;;;;9.10;1.85;;;;;;;-146.27;100.00;83163.69;5081942;28;20040;-66
2023/03/30 04:11:07;;;;;;;13.82;2.20;;;;;;;-146.27;100.00;83199.84;5080705;28;20106;-66
2023/03/30 04:13:33;;;;;;;11.68;2.20;;;;;;;-146.27;100.00;83179.75;5087132;28;20021;-66
2023/03/30 04:15:59;;;;;;;26.17;3.13;;;;;;;-146.27;100.00;83240.03;5086071;28;20517;-67
2023/03/30 04:18:30;;;;;;;14.35;2.00;;;;;;;-146.27;100.00;83183.78;5086904;28;20024;-66
2023/03/30 04:20:58;;;;;;;10.07;1.98;;;;;;;-146.27;100.00;83256.09;5081767;28;20028;-66
2023/03/30 04:23:24;;;;;;;13.45;2.15;;;;;;;-146.27;100.00;83256.09;5089501;28;20028;-67
2023/03/30 04:25:50;;;;;;;14.40;2.85;;;;;;;-146.27;100.00;83276.19;5086588;28;20070;-66
2023/03/30 04:28:20;;;;;;;14.85;2.90;;;;;;;-146.27;100.00;83274.19;5091084;28;20131;-67
2023/03/30 04:30:46;;;;;;;18.98;2.50;;;;;;;-146.27;100.00;83286.25;5081680;28;20531;-67
2023/03/30 04:33:13;;;;;;;15.38;2.38;;;;;;;-146.27;100.00;83304.31;5076326;28;20103;-66
2023/03/30 04:35:39;;;;;;;21.63;3.22;;;;;;;-146.27;100.00;83322.41;5078157;28;20020;-66
2023/03/30 04:38:05;;;;;;;17.50;2.40;;;;;;;-146.27;100.00;83336.47;5091452;28;20039;-66
2023/03/30 04:40:30;;;;;;;16.88;2.90;;;;;;;-146.27;100.00;83328.44;5085429;28;20032;-66
2023/03/30 04:43:01;;;;;;;24.42;3.83;;;;;;;-146.27;100.00;83332.44;5091323;28;20032;-66
2023/03/30 04:45:28;;;;;;;23.73;3.17;;;;;;;-146.27;100.00;83350.53;5089648;28;20028;-65
2023/03/30 04:47:53;;;;;;;17.33;2.38;;;;;;;-146.27;100.00;83412.81;5092064;28;20028;-66
2023/03/30 04:50:18;;;;;;;17.25;2.85;;;;;;;-146.27;100.00;83372.63;5088984;28;20039;-67
2023/03/30 04:52:44;;;;;;;17.88;3.13;;;;;;;-146.27;100.00;83428.91;5086272;28;20030;-67
2023/03/30 04:55:10;;;;;;;24.63;3.60;;;;;;;-146.27;100.00;83386.69;5091149;28;20030;-67
2023/03/30 04:57:36;;;;;;;16.27;3.35;;;;;;;-146.27;100.00;83380.69;5085221;28;20491;-67
2023/03/30 05:00:04;;;;;;;21.25;2.33;;;;;;;-146.27;100.00;83408.81;5089531;28;20031;-66
2023/03/30 05:02:30;;;;;;;16.73;4.22;;;;;;;-146.27;100.00;83422.88;5078579;28;20029;-66
2023/03/30 05:04:55;;;;;;;19.60;3.65;;;;;;;-146.27;100.00;83412.81;5075020;28;20024;-67
2023/03/30 05:07:20;;;;;;;22.95;3.00;;;;;;;-146.27;100.00;83444.97;5085705;28;20028;-67
2023/03/30 05:09:46;;;;;;;16.67;3.33;;;;;;;-146.27;100.00;83408.81;5081588;28;20040;-66
2023/03/30 05:12:11;;;;;;;21.30;3.25;;;;;;;-146.27;100.00;83404.78;5072602;28;20077;-67
2023/03/30 05:14:36;;;;;;;16.88;2.42;;;;;;;-146.27;100.00;83416.84;5087737;28;20020;-67
2023/03/30 05:17:02;;;;;;;26.13;3.42;;;;;;;-146.27;100.00;83459.03;5079076;28;20055;-66
2023/03/30 05:19:28;;;;;;;18.13;2.47;;;;;;;-146.27;100.00;83416.84;5090509;28;20387;-67
2023/03/30 05:21:53;;;;;;;16.45;3.08;;;;;;;-146.27;100.00;83481.16;5079064;28;20077;-66
2023/03/30 05:24:19;;;;;;;26.27;3.35;;;;;;;-146.27;100.00;83459.03;5093459;28;20103;-67
2023/03/30 05:26:44;;;;;;;25.77;2.67;;;;;;;-146.27;100.00;83457.03;5081755;28;20031;-67
2023/03/30 05:29:09;;;;;;;20.50;3.00;;;;;;;-146.27;100.00;83493.19;5078402;28;20036;-66
2023/03/30 05:31:35;;;;;;;19.70;4.43;;;;;;;-146.27;100.00;83463.06;5082938;28;20023;-66
2023/03/30 05:34:00;;;;;;;27.40;3.90;;;;;;;-146.27;100.00;83489.19;5077487;28;20077;-65
2023/03/30 05:36:26;;;;;;;18.75;3.90;;;;;;;-146.27;100.00;83491.19;5079897;28;20028;-66
2023/03/30 05:38:51;;;;;;;18.23;2.90;;;;;;;-146.27;100.00;83495.22;5087026;28;20111;-67
2023/03/30 05:41:16;;;;;;;23.52;4.32;;;;;;;-146.27;100.00;83469.09;5083244;28;20540;-66
2023/03/30 05:43:42;;;;;;;24.85;3.70;;;;;;;-146.27;100.00;83503.25;5077094;28;20029;-67
2023/03/30 05:46:07;;;;;;;23.30;3.75;;;;;;;-146.27;100.00;83497.22;5084664;28;20025;-67
2023/03/30 05:48:32;;;;;;;23.58;4.20;;;;;;;-146.27;100.00;83481.16;5088719;28;20347;-66
2023/03/30 05:50:58;;;;;;;20.30;3.20;;;;;;;-146.27;100.00;83521.34;5082743;28;20416;-67
2023/03/30 05:53:23;;;;;;;30.65;3.90;;;;;;;-146.27;100.00;83537.41;5082971;28;20060;-67
2023/03/30 05:55:49;;;;;;;26.77;3.38;;;;;;;-146.27;100.00;83505.25;5085573;28;20024;-67
2023/03/30 05:58:15;;;;;;;25.65;3.47;;;;;;;-146.27;100.00;83503.25;5082989;28;20031;-67
2023/03/30 06:00:42;;;;;;;19.88;3.53;;;;;;;-146.27;100.00;83487.16;5083579;28;20467;-66
2023/03/30 06:03:09;;;;;;;25.75;4.47;;;;;;;-146.27;100.00;83477.13;5089320;28;20032;-67
2023/03/30 06:05:37;;;;;;;33.63;3.85;;;;;;;-146.27;100.00;83473.09;5091254;28;20123;-67
2023/03/30 06:08:03;;;;;;;29.95;3.90;;;;;;;-146.27;100.00;83549.47;5081591;28;20028;-66
2023/03/30 06:10:28;;;;;;;21.17;3.88;;;;;;;-146.27;100.00;83453.00;5082526;28;20058;-66
2023/03/30 06:12:54;;;;;;;24.77;3.30;;;;;;;-146.27;100.00;83471.09;5080135;28;20059;-65
2023/03/30 06:15:19;;;;;;;27.10;3.40;;;;;;;-146.27;100.00;83449.00;5082499;28;20027;-66
2023/03/30 06:17:45;;;;;;;28.77;3.53;;;;;;;-146.27;100.00;83477.13;5082296;28;20056;-65
2023/03/30 06:20:11;;;;;;;32.50;4.03;;;;;;;-146.27;100.00;83467.06;5086316;28;20036;-65
2023/03/30 06:22:40;;;;;;;32.88;4.30;;;;;;;-146.27;100.00;83408.81;5081097;28;20380;-65
2023/03/30 06:25:06;;;;;;;22.77;4.53;;;;;;;-146.27;100.00;83469.09;5075302;28;20036;-65
2023/03/30 06:27:32;;;;;;;16.02;3.08;;;;;;;-146.27;100.00;83461.06;5084843;28;20349;-65
2023/03/30 06:29:57;;;;;;;28.75;3.55;;;;;;;-146.27;100.00;83416.84;5083993;28;20036;-65
2023/03/30 06:32:23;;;;;;;26.88;3.85;;;;;;;-146.27;100.00;83469.09;5081492;28;20024;-64
2023/03/30 06:34:49;;;;;;;36.13;4.15;;;;;;;-146.27;100.00;83509.28;5080834;28;20487;-66
2023/03/30 06:37:14;;;;;;;24.33;3.55;;;;;;;-146.27;100.00;83477.13;5082869;28;20058;-66
2023/03/30 06:39:39;;;;;;;21.23;3.90;;;;;;;-146.27;100.00;83471.09;5082135;28;20468;-65
2023/03/30 06:42:05;;;;;;;32.20;4.32;;;;;;;-146.27;100.00;83469.09;5081517;28;20032;-66
2023/03/30 06:44:32;;;;;;;23.55;3.97;;;;;;;-146.27;100.00;83438.94;5083437;28;20097;-66
2023/03/30 06:46:58;;;;;;;24.63;3.35;;;;;;;-146.27;100.00;83453.00;5074909;28;20107;-66
2023/03/30 06:49:24;;;;;;;21.35;3.42;;;;;;;-146.27;100.00;83428.91;5080294;28;20119;-66
2023/03/30 06:51:49;;;;;;;24.23;3.90;;;;;;;-146.27;100.00;83459.03;5085372;28;20236;-66
2023/03/30 06:54:18;;;;;;;27.83;4.78;;;;;;;-146.27;100.00;83404.78;5085555;28;20028;-67
2023/03/30 06:56:45;;;;;;;22.10;4.32;;;;;;;-146.27;100.00;83457.03;5088247;28;20024;-67
2023/03/30 06:59:10;;;;;;;31.23;4.97;;;;;;;-146.27;100.00;83428.91;5079082;28;20108;-67
2023/03/30 07:01:36;;;;;;;20.35;3.35;;;;;;;-146.27;100.00;83398.75;5088348;28;20107;-68
2023/03/30 07:04:01;;;;;;;35.90;4.07;;;;;;;-146.27;100.00;83412.81;5079973;28;20020;-67
2023/03/30 07:06:27;;;;;;;24.45;3.70;;;;;;;-146.27;100.00;83430.91;5093450;28;20024;-67
2023/03/30 07:08:52;;;;;;;24.23;3.67;;;;;;;-146.27;100.00;83414.84;5085647;28;20068;-67
2023/03/30 07:11:17;;;;;;;25.67;4.22;;;;;;;-146.27;100.00;83340.50;5093498;28;20495;-67
2023/03/30 07:13:43;;;;;;;28.33;4.88;;;;;;;-146.27;100.00;83364.59;5093013;28;20472;-67
2023/03/30 07:16:08;;;;;;;22.98;3.90;;;;;;;-146.27;100.00;83354.56;5082674;28;20197;-67
2023/03/30 07:18:34;;;;;;;30.67;4.35;;;;;;;-146.27;100.00;83360.59;5081149;28;20120;-68
2023/03/30 07:20:59;;;;;;;28.48;4.03;;;;;;;-146.27;100.00;83280.22;5072593;28;20020;-67
2023/03/30 07:23:25;;;;;;;28.15;4.00;;;;;;;-146.27;100.00;83330.44;5072526;28;20373;-67
2023/03/30 07:25:50;;;;;;;26.50;4.35;;;;;;;-146.27;100.00;83284.22;5090062;28;20020;-66
2023/03/30 07:28:16;;;;;;;24.63;3.95;;;;;;;-146.27;100.00;83288.25;5092673;28;20024;-67
2023/03/30 07:30:41;;;;;;;28.50;4.53;;;;;;;-146.27;100.00;83276.19;5092046;28;20468;-67
2023/03/30 07:33:07;;;;;;;26.73;4.57;;;;;;;-146.27;100.00;83324.41;5086480;28;20476;-67
2023/03/30 07:35:32;;;;;;;34.50;4.38;;;;;;;-146.27;100.00;83300.31;5083965;28;20024;-68
2023/03/30 07:37:58;;;;;;;31.33;4.63;;;;;;;-146.27;100.00;83296.28;5075702;28;20062;-67
2023/03/30 07:40:23;;;;;;;24.15;4.40;;;;;;;-146.27;100.00;83324.41;5081246;28;20024;-68
2023/03/30 07:42:49;;;;;;;25.13;4.47;;;;;;;-146.27;100.00;83336.47;5077250;28;20039;-67
2023/03/30 07:45:15;;;;;;;27.95;3.65;;;;;;;-146.27;100.00;83338.47;5071093;28;20078;-68
2023/03/30 07:47:40;;;;;;;33.03;4.55;;;;;;;-146.27;100.00;83336.47;5086138;28;20119;-67
2023/03/30 07:50:07;;;;;;;27.67;3.88;;;;;;;-146.27;100.00;83282.22;5085484;28;20480;-67
2023/03/30 07:52:33;;;;;;;40.58;5.65;;;;;;;-146.27;100.00;83356.56;5085928;28;20436;-67
2023/03/30 07:54:58;;;;;;;30.25;5.10;;;;;;;-146.27;100.00;83340.50;5080386;28;20063;-67
2023/03/30 07:57:23;;;;;;;39.33;5.05;;;;;;;-146.27;100.00;83332.44;5090404;28;20442;-67
2023/03/30 07:59:49;;;;;;;30.85;4.43;;;;;;;-146.27;100.00;83368.63;5085132;28;20025;-65
2023/03/30 08:02:15;;;;;;;33.92;4.88;;;;;;;-146.27;100.00;83386.69;5090759;28;20051;-66
2023/03/30 08:04:42;;;;;;;32.45;4.72;;;;;;;-146.27;100.00;83338.47;5082085;28;20024;-65
2023/03/30 08:07:08;;;;;;;41.10;5.68;;;;;;;-146.27;100.00;83364.59;5090136;28;20020;-66
2023/03/30 08:09:34;;;;;;;27.25;3.65;;;;;;;-146.27;100.00;83344.50;5086107;28;20064;-67
2023/03/30 08:12:00;;;;;;;28.55;4.88;;;;;;;-146.27;100.00;83304.31;5090449;28;20384;-67
2023/03/30 08:14:26;;;;;;;36.17;5.18;;;;;;;-146.27;100.00;83280.22;5077451;28;20020;-67
2023/03/30 08:16:55;;;;;;;33.88;4.78;;;;;;;-146.27;100.00;83288.25;5085711;28;20028;-67
2023/03/30 08:19:23;;;;;;;32.28;4.78;;;;;;;-146.27;100.00;83336.47;5075259;28;20103;-66
2023/03/30 08:21:48;;;;;;;36.55;5.50;;;;;;;-146.27;100.00;83312.34;5076953;28;20496;-66
2023/03/30 08:24:14;;;;;;;36.25;5.13;;;;;;;-146.27;100.00;83296.28;5071570;28;20097;-67
2023/03/30 08:26:40;;;;;;;35.45;4.85;;;;;;;-146.27;100.00;83272.19;5074941;28;20027;-67
2023/03/30 08:29:07;;;;;;;38.10;5.13;;;;;;;-146.27;100.00;83236.00;5090599;28;20037;-66
2023/03/30 08:31:33;;;;;;;36.10;5.00;;;;;;;-146.27;100.00;83272.19;5086346;28;20443;-67
2023/03/30 08:33:58;;;;;;;36.72;4.93;;;;;;;-146.27;100.00;83229.97;5072307;28;20029;-67
2023/03/30 08:36:24;;;;;;;29.92;4.75;;;;;;;-146.27;100.00;83252.09;5072146;28;20058;-67
2023/03/30 08:38:50;;;;;;;37.70;5.20;;;;;;;-146.27;100.00;83240.03;5086101;28;20032;-67
2023/03/30 08:41:22;;;;;;;23.73;4.93;;;;;;;-146.27;100.00;83227.97;5091516;28;20045;-67
2023/03/30 08:44:32;;;;;;;34.80;5.03;;;;;;;-146.27;100.00;83181.75;5083162;28;20070;-67
2023/03/30 08:47:00;;;;;;;28.40;4.40;;;;;;;-146.27;100.00;83167.69;5080293;28;20103;-67
2023/03/30 08:49:30;;;;;;;30.25;5.38;;;;;;;-146.27;100.00;83256.09;5081185;28;20107;-67
2023/03/30 08:51:56;;;;;;;28.90;4.32;;;;;;;-146.27;100.00;83181.75;5083545;28;20088;-67
2023/03/30 08:54:24;;;;;;;35.97;5.80;;;;;;;-146.27;99.19;83159.66;5090823;28;20033;-67
2023/03/30 08:57:08;;;;;;;30.92;4.82;;;;;;;-146.27;99.22;83169.69;5095686;28;20099;-67
2023/03/30 08:59:33;;;;;;;;;;;;;;;-146.27;98.22;83147.59;5081627;28;20024;-67
2023/03/30 09:02:26;;;;;;;38.38;4.95;;;;;;;-146.27;96.82;83119.47;5087147;28;19912;-67
2023/03/30 09:05:00;;;;;;;38.75;5.13;;;;;;;-146.27;96.33;83155.63;5092615;28;20046;-66
2023/03/30 09:07:39;;;;;;;33.15;4.82;;;;;;;-146.27;95.78;83145.59;5089455;28;20028;-66
2023/03/30 09:10:13;;;;;;;22.80;3.90;;;;;;;-146.27;95.60;83167.69;5089175;28;20058;-66
2023/03/30 09:12:49;;;;;;;26.50;4.25;;;;;;;-146.27;94.42;83141.56;5093637;28;20064;-65
2023/03/30 09:15:18;;;;;;;23.70;4.55;;;;;;;-146.27;92.52;83133.53;5077817;28;20028;-66
2023/03/30 09:18:11;;;;;;;30.73;5.10;;;;;;;-146.27;91.50;83117.47;5083902;28;20027;-66
2023/03/30 09:20:39;;;;;;;41.70;5.53;;;;;;;-146.27;92.00;83059.19;5084133;28;20028;-67
2023/03/30 09:23:09;;;;;;;27.92;4.45;;;;;;;-146.27;90.69;83093.34;5077413;28;20329;-67
2023/03/30 09:25:43;;;;;;;27.38;4.63;;;;;;;-146.27;91.24;83055.19;5074304;28;20431;-66
2023/03/30 09:28:41;;;;;;;29.85;5.47;;;;;;;-146.27;91.92;83087.31;5088901;28;20028;-67
2023/03/30 09:31:21;;;;;;;24.20;4.63;;;;;;;-146.27;92.23;83043.13;5057543;28;20040;-66
2023/03/30 09:33:58;;;;;;;29.42;4.85;;;;;;;-146.27;92.47;83107.41;5084512;28;20442;-67
2023/03/30 09:36:43;;;;;;;29.38;4.05;;;;;;;-146.27;93.90;83115.47;5089704;28;20537;-66
2023/03/30 09:39:20;;;;;;;38.50;5.00;;;;;;;-146.27;92.37;83059.19;5076425;28;20132;-66
2023/03/30 09:42:03;;;;;;;38.92;5.40;;;;;;;-146.27;91.46;83027.06;5088223;28;20078;-66
2023/03/30 09:44:35;;;;;;;35.00;5.25;;;;;;;-146.27;92.23;83025.03;5094274;28;20051;-66
2023/03/30 09:47:01;;;;;;;32.08;4.72;;;;;;;-146.27;91.19;83055.19;5094721;28;20188;-66
2023/03/30 09:49:28;;;;;;;29.77;4.65;;;;;;;-146.27;91.25;83035.09;5094857;28;20476;-66
2023/03/30 09:51:53;;;;;;;28.33;4.50;;;;;;;-146.27;89.77;83059.19;5094123;28;20030;-67
2023/03/30 09:54:20;;;;;;;21.77;4.88;;;;;;;-146.27;89.63;82966.78;5100542;28;20027;-66
2023/03/30 09:56:50;;;;;;;26.55;4.47;;;;;;;-146.27;89.19;82946.69;5104909;28;20020;-66
2023/03/30 09:59:20;;;;;;;26.90;4.95;;;;;;;-146.27;87.70;82956.75;5093291;27;20038;-66
2023/03/30 10:01:46;;;;;;;29.45;4.15;;;;;;;-146.27;87.54;82940.66;5091595;28;20103;-66
2023/03/30 10:04:12;;;;;;;30.30;6.50;;;;;;;-146.27;85.63;82910.53;5099859;28;20384;-67
2023/03/30 10:06:45;;;;;;;38.10;6.43;;;;;;;-146.27;84.98;82874.38;5113427;28;20027;-67
2023/03/30 10:09:12;;;;;;;30.77;5.03;;;;;;;-146.27;83.43;82894.47;5098813;28;20388;-67
2023/03/30 10:11:48;;;;;;;33.78;4.90;;;;;;;-146.27;85.42;82922.59;5110824;28;20027;-67
2023/03/30 10:14:43;;;;;;;33.03;5.45;;;;;;;-146.27;86.79;82980.84;5100136;28;20034;-66
2023/03/30 10:17:19;;;;;;;28.63;4.53;;;;;;;-146.27;87.74;82976.81;5091795;28;20036;-67
2023/03/30 10:19:45;;;;;;;35.40;4.45;;;;;;;-146.27;87.08;82996.91;5110875;28;20024;-66
2023/03/30 10:22:21;;;;;;;32.35;4.88;;;;;;;-146.27;87.29;82996.91;5078380;28;20024;-67
2023/03/30 10:24:56;;;;;;;32.40;5.00;;;;;;;-146.27;87.18;82934.63;5094119;28;20032;-67
2023/03/30 10:27:38;;;;;;;26.95;5.22;;;;;;;-146.27;86.54;82934.63;5090621;28;20027;-67
2023/03/30 10:30:11;;;;;;;28.33;5.22;;;;;;;-146.27;85.73;82854.28;5080039;28;20489;-67
2023/03/30 10:32:37;;;;;;;28.13;4.30;;;;;;;-146.27;84.62;82794.00;5087807;28;20024;-66
2023/03/30 10:35:09;;;;;;;23.42;3.92;;;;;;;-146.27;83.28;82729.72;5091502;28;20491;-68
2023/03/30 10:37:40;;;;;;;32.88;4.28;;;;;;;-146.27;80.84;82737.75;5093128;28;20032;-67
2023/03/30 10:40:16;;;;;;;23.23;3.78;;;;;;;-146.27;80.27;82777.94;5093604;28;20345;-67
2023/03/30 10:42:42;;;;;;;27.83;4.50;;;;;;;-146.27;81.43;82769.91;5093557;28;20146;-66
2023/03/30 10:45:30;;;;;;;29.98;4.72;;;;;;;-146.27;80.65;82707.63;5093309;28;20112;-67
2023/03/30 10:48:10;;;;;;;29.25;4.90;;;;;;;-146.27;80.54;82689.53;5088487;28;20012;-66
2023/03/30 10:50:53;;;;;;;32.63;3.85;;;;;;;-146.27;81.00;82669.44;5079801;28;20032;-67
2023/03/30 10:53:21;;;;;;;29.23;4.90;;;;;;;-146.27;80.59;82699.59;5078787;28;20037;-67
2023/03/30 10:56:01;;;;;;;29.20;4.63;;;;;;;-146.27;80.55;82711.63;5080568;28;20426;-67
2023/03/30 10:58:45;;;;;;;31.50;4.03;;;;;;;-146.27;81.12;82810.06;5081779;28;20081;-67
2023/03/30 11:01:48;;;;;;;39.78;5.63;;;;;;;-146.27;82.06;82802.03;5092671;28;20486;-67
2023/03/30 11:04:25;;;;;;;32.50;6.25;;;;;;;-146.27;82.78;82777.94;5073078;28;20375;-67
2023/03/30 11:06:55;;;;;;;26.02;4.38;;;;;;;-146.27;83.69;82866.31;5073030;28;20024;-68
2023/03/30 11:09:26;;;;;;;26.27;4.65;;;;;;;-146.27;85.67;82878.38;5072646;28;20041;-67
2023/03/30 11:11:56;;;;;;;34.30;4.40;;;;;;;-146.27;86.66;82950.72;5072778;28;20021;-67
2023/03/30 11:14:29;;;;;;;29.08;4.55;;;;;;;-146.27;87.51;82930.63;5072711;28;20021;-67
2023/03/30 11:17:02;;;;;;;26.48;4.40;;;;;;;-146.27;87.92;82914.53;5072480;28;20476;-68
2023/03/30 11:19:37;;;;;;;36.97;5.07;;;;;;;-146.27;88.73;82954.72;5091559;28;20039;-66
2023/03/30 11:22:25;;;;;;;26.38;4.13;;;;;;;-146.27;88.64;82882.41;5092904;28;20432;-67